sensor_id;sensor_type;location;lat;lon;timestamp;pressure;altitude;pressure_sealevel;temperature;humidity
28921;BME280;16035;53.594;9.952;2024-01-07T00:00:42;101999.91;;;0.36;70.67
28921;BME280;16035;53.594;9.952;2024-01-07T00:02:42;102004.75;;;0.33;70.97
28921;BME280;16035;53.594;9.952;2024-01-07T00:04:43;102006.41;;;0.34;70.37
28921;BME280;16035;53.594;9.952;2024-01-07T00:06:43;102013.25;;;0.28;70.39
28921;BME280;16035;53.594;9.952;2024-01-07T00:08:44;102011.75;;;0.25;70.67
28921;BME280;16035;53.594;9.952;2024-01-07T00:10:44;102022.91;;;0.21;70.24
28921;BME280;16035;53.594;9.952;2024-01-07T00:12:44;102018.75;;;0.18;70.39
28921;BME280;16035;53.594;9.952;2024-01-07T00:14:45;102021.91;;;0.22;70.86
28921;BME280;16035;53.594;9.952;2024-01-07T00:16:45;102031.63;;;0.23;70.56
28921;BME280;16035;53.594;9.952;2024-01-07T00:18:45;102016.38;;;0.15;70.42
28921;BME280;16035;53.594;9.952;2024-01-07T00:20:46;102022.75;;;0.14;70.25
28921;BME280;16035;53.594;9.952;2024-01-07T00:22:46;102021.53;;;0.09;70.65
28921;BME280;16035;53.594;9.952;2024-01-07T00:24:46;102023.84;;;0.04;70.68
28921;BME280;16035;53.594;9.952;2024-01-07T00:26:46;102028.84;;;-0.02;70.28
28921;BME280;16035;53.594;9.952;2024-01-07T00:28:47;102030.81;;;-0.12;70.24
28921;BME280;16035;53.594;9.952;2024-01-07T00:30:48;102031.81;;;-0.13;70.61
28921;BME280;16035;53.594;9.952;2024-01-07T00:32:49;102035.13;;;-0.11;70.37
28921;BME280;16035;53.594;9.952;2024-01-07T00:34:51;102033.94;;;-0.16;70.65
28921;BME280;16035;53.594;9.952;2024-01-07T00:36:51;102035.25;;;-0.20;70.74
28921;BME280;16035;53.594;9.952;2024-01-07T00:38:52;102041.44;;;-0.20;70.66
28921;BME280;16035;53.594;9.952;2024-01-07T00:40:52;102037.88;;;-0.29;70.58
28921;BME280;16035;53.594;9.952;2024-01-07T00:42:52;102049.25;;;-0.27;70.91
28921;BME280;16035;53.594;9.952;2024-01-07T00:44:53;102039.72;;;-0.29;70.53
28921;BME280;16035;53.594;9.952;2024-01-07T00:46:53;102052.41;;;-0.31;70.99
28921;BME280;16035;53.594;9.952;2024-01-07T00:48:53;102054.06;;;-0.30;70.63
28921;BME280;16035;53.594;9.952;2024-01-07T00:50:54;102051.25;;;-0.29;70.73
28921;BME280;16035;53.594;9.952;2024-01-07T00:52:55;102054.75;;;-0.28;70.71
28921;BME280;16035;53.594;9.952;2024-01-07T00:54:55;102059.72;;;-0.33;71.10
28921;BME280;16035;53.594;9.952;2024-01-07T00:56:56;102055.38;;;-0.34;70.82
28921;BME280;16035;53.594;9.952;2024-01-07T00:58:56;102056.88;;;-0.32;70.70
28921;BME280;16035;53.594;9.952;2024-01-07T01:00:56;102058.88;;;-0.34;70.99
28921;BME280;16035;53.594;9.952;2024-01-07T01:02:57;102060.91;;;-0.36;70.96
28921;BME280;16035;53.594;9.952;2024-01-07T01:04:58;102069.03;;;-0.37;71.26
28921;BME280;16035;53.594;9.952;2024-01-07T01:06:58;102071.03;;;-0.39;71.31
28921;BME280;16035;53.594;9.952;2024-01-07T01:08:59;102069.34;;;-0.40;71.25
28921;BME280;16035;53.594;9.952;2024-01-07T01:10:59;102073.19;;;-0.43;71.05
28921;BME280;16035;53.594;9.952;2024-01-07T01:12:59;102076.31;;;-0.47;71.13
28921;BME280;16035;53.594;9.952;2024-01-07T01:15:00;102079.47;;;-0.52;70.62
28921;BME280;16035;53.594;9.952;2024-01-07T01:17:00;102075.78;;;-0.51;71.03
28921;BME280;16035;53.594;9.952;2024-01-07T01:19:00;102085.63;;;-0.52;71.17
28921;BME280;16035;53.594;9.952;2024-01-07T01:21:01;102083.13;;;-0.53;71.22
28921;BME280;16035;53.594;9.952;2024-01-07T01:23:01;102087.63;;;-0.54;71.38
28921;BME280;16035;53.594;9.952;2024-01-07T01:25:02;102090.44;;;-0.55;71.13
28921;BME280;16035;53.594;9.952;2024-01-07T01:27:03;102095.66;;;-0.54;70.93
28921;BME280;16035;53.594;9.952;2024-01-07T01:29:04;102099.63;;;-0.58;71.09
28921;BME280;16035;53.594;9.952;2024-01-07T01:31:04;102100.91;;;-0.62;71.18
28921;BME280;16035;53.594;9.952;2024-01-07T01:33:05;102100.59;;;-0.59;71.23
28921;BME280;16035;53.594;9.952;2024-01-07T01:35:06;102109.59;;;-0.60;71.24
28921;BME280;16035;53.594;9.952;2024-01-07T01:37:08;102109.06;;;-0.63;71.31
28921;BME280;16035;53.594;9.952;2024-01-07T01:39:09;102104.72;;;-0.64;71.09
28921;BME280;16035;53.594;9.952;2024-01-07T01:41:09;102114.72;;;-0.66;71.38
28921;BME280;16035;53.594;9.952;2024-01-07T01:43:09;102114.56;;;-0.65;71.23
28921;BME280;16035;53.594;9.952;2024-01-07T01:45:10;102115.56;;;-0.66;71.15
28921;BME280;16035;53.594;9.952;2024-01-07T01:47:10;102115.56;;;-0.66;71.07
28921;BME280;16035;53.594;9.952;2024-01-07T01:49:12;102117.69;;;-0.69;71.45
28921;BME280;16035;53.594;9.952;2024-01-07T01:51:12;102113.03;;;-0.67;71.51
28921;BME280;16035;53.594;9.952;2024-01-07T01:53:13;102122.75;;;-0.66;71.49
28921;BME280;16035;53.594;9.952;2024-01-07T01:55:14;102128.75;;;-0.64;71.39
28921;BME280;16035;53.594;9.952;2024-01-07T01:57:17;102136.94;;;-0.66;71.26
28921;BME280;16035;53.594;9.952;2024-01-07T01:59:20;102127.91;;;-0.65;71.43
28921;BME280;16035;53.594;9.952;2024-01-07T02:01:22;102131.59;;;-0.66;71.48
28921;BME280;16035;53.594;9.952;2024-01-07T02:03:23;102141.09;;;-0.63;71.40
28921;BME280;16035;53.594;9.952;2024-01-07T02:05:24;102136.47;;;-0.61;71.42
28921;BME280;16035;53.594;9.952;2024-01-07T02:07:26;102140.50;;;-0.57;71.50
28921;BME280;16035;53.594;9.952;2024-01-07T02:09:28;102145.22;;;-0.51;71.28
28921;BME280;16035;53.594;9.952;2024-01-07T02:11:28;102146.44;;;-0.45;71.18
28921;BME280;16035;53.594;9.952;2024-01-07T02:13:28;102145.47;;;-0.44;71.65
28921;BME280;16035;53.594;9.952;2024-01-07T02:15:29;102147.25;;;-0.45;70.93
28921;BME280;16035;53.594;9.952;2024-01-07T02:17:30;102149.47;;;-0.40;71.31
28921;BME280;16035;53.594;9.952;2024-01-07T02:19:31;102157.88;;;-0.35;71.31
28921;BME280;16035;53.594;9.952;2024-01-07T02:21:31;102151.75;;;-0.28;71.16
28921;BME280;16035;53.594;9.952;2024-01-07T02:23:31;102155.25;;;-0.27;70.71
28921;BME280;16035;53.594;9.952;2024-01-07T02:25:37;102156.97;;;-0.26;71.16
28921;BME280;16035;53.594;9.952;2024-01-07T02:27:38;102158.47;;;-0.23;70.83
28921;BME280;16035;53.594;9.952;2024-01-07T02:29:38;102154.66;;;-0.21;71.39
28921;BME280;16035;53.594;9.952;2024-01-07T02:31:38;102159.69;;;-0.18;71.03
28921;BME280;16035;53.594;9.952;2024-01-07T02:33:39;102165.41;;;-0.13;71.19
28921;BME280;16035;53.594;9.952;2024-01-07T02:35:39;102153.88;;;-0.13;70.94
28921;BME280;16035;53.594;9.952;2024-01-07T02:37:40;102165.41;;;-0.13;70.86
28921;BME280;16035;53.594;9.952;2024-01-07T02:39:40;102163.09;;;-0.08;70.96
28921;BME280;16035;53.594;9.952;2024-01-07T02:41:40;102166.13;;;-0.03;71.04
28921;BME280;16035;53.594;9.952;2024-01-07T02:43:41;102170.66;;;-0.03;71.11
28921;BME280;16035;53.594;9.952;2024-01-07T02:45:41;102176.13;;;-0.05;70.73
28921;BME280;16035;53.594;9.952;2024-01-07T02:47:41;102169.66;;;-0.02;71.01
28921;BME280;16035;53.594;9.952;2024-01-07T02:49:41;102172.22;;;0.08;71.15
28921;BME280;16035;53.594;9.952;2024-01-07T02:51:42;102177.91;;;0.13;71.01
28921;BME280;16035;53.594;9.952;2024-01-07T02:53:45;102180.28;;;0.16;70.47
28921;BME280;16035;53.594;9.952;2024-01-07T02:55:45;102178.75;;;0.13;70.74
28921;BME280;16035;53.594;9.952;2024-01-07T02:57:46;102183.28;;;0.13;70.31
28921;BME280;16035;53.594;9.952;2024-01-07T02:59:46;102187.84;;;0.20;70.69
28921;BME280;16035;53.594;9.952;2024-01-07T03:01:46;102184.69;;;0.25;70.82
28921;BME280;16035;53.594;9.952;2024-01-07T03:03:47;102181.19;;;0.24;70.42
28921;BME280;16035;53.594;9.952;2024-01-07T03:05:47;102182.50;;;0.20;70.30
28921;BME280;16035;53.594;9.952;2024-01-07T03:07:48;102186.16;;;0.19;70.17
28921;BME280;16035;53.594;9.952;2024-01-07T03:09:49;102187.38;;;0.25;70.69
28921;BME280;16035;53.594;9.952;2024-01-07T03:11:49;102187.38;;;0.25;70.27
28921;BME280;16035;53.594;9.952;2024-01-07T03:13:50;102191.41;;;0.29;70.38
28921;BME280;16035;53.594;9.952;2024-01-07T03:15:50;102188.25;;;0.34;70.51
28921;BME280;16035;53.594;9.952;2024-01-07T03:17:50;102194.44;;;0.34;70.45
28921;BME280;16035;53.594;9.952;2024-01-07T03:19:51;102197.63;;;0.38;70.65
28921;BME280;16035;53.594;9.952;2024-01-07T03:21:51;102193.81;;;0.40;70.25
28921;BME280;16035;53.594;9.952;2024-01-07T03:23:51;102198.47;;;0.38;70.43
28921;BME280;16035;53.594;9.952;2024-01-07T03:25:52;102193.97;;;0.39;70.09
28921;BME280;16035;53.594;9.952;2024-01-07T03:27:52;102191.81;;;0.42;70.60
28921;BME280;16035;53.594;9.952;2024-01-07T03:29:52;102206.56;;;0.46;70.08
28921;BME280;16035;53.594;9.952;2024-01-07T03:31:53;102205.53;;;0.47;70.53
28921;BME280;16035;53.594;9.952;2024-01-07T03:33:53;102198.34;;;0.48;69.60
28921;BME280;16035;53.594;9.952;2024-01-07T03:35:54;102202.22;;;0.45;69.99
28921;BME280;16035;53.594;9.952;2024-01-07T03:37:54;102211.06;;;0.46;70.55
28921;BME280;16035;53.594;9.952;2024-01-07T03:39:54;102205.53;;;0.47;69.68
28921;BME280;16035;53.594;9.952;2024-01-07T03:41:55;102214.94;;;0.52;69.96
28921;BME280;16035;53.594;9.952;2024-01-07T03:43:56;102212.91;;;0.54;69.99
28921;BME280;16035;53.594;9.952;2024-01-07T03:45:57;102209.94;;;0.57;70.23
28921;BME280;16035;53.594;9.952;2024-01-07T03:47:57;102218.81;;;0.57;70.19
28921;BME280;16035;53.594;9.952;2024-01-07T03:49:58;102217.31;;;0.55;69.79
28921;BME280;16035;53.594;9.952;2024-01-07T03:51:58;102224.84;;;0.59;70.13
28921;BME280;16035;53.594;9.952;2024-01-07T03:53:58;102224.00;;;0.59;69.91
28921;BME280;16035;53.594;9.952;2024-01-07T03:55:59;102229.97;;;0.53;69.64
28921;BME280;16035;53.594;9.952;2024-01-07T03:57:59;102224.97;;;0.49;69.85
28921;BME280;16035;53.594;9.952;2024-01-07T03:59:59;102231.50;;;0.55;69.86
28921;BME280;16035;53.594;9.952;2024-01-07T04:02:00;102230.38;;;0.66;69.96
28921;BME280;16035;53.594;9.952;2024-01-07T04:04:00;102228.41;;;0.68;69.71
28921;BME280;16035;53.594;9.952;2024-01-07T04:06:00;102232.94;;;0.67;69.60
28921;BME280;16035;53.594;9.952;2024-01-07T04:08:01;102239.59;;;0.63;69.43
28921;BME280;16035;53.594;9.952;2024-01-07T04:10:02;102235.75;;;0.66;69.27
28921;BME280;16035;53.594;9.952;2024-01-07T04:12:03;102243.16;;;0.72;69.35
28921;BME280;16035;53.594;9.952;2024-01-07T04:14:03;102238.28;;;0.67;68.27
28921;BME280;16035;53.594;9.952;2024-01-07T04:16:04;102245.97;;;0.70;68.42
28921;BME280;16035;53.594;9.952;2024-01-07T04:18:04;102242.63;;;0.68;68.38
28921;BME280;16035;53.594;9.952;2024-01-07T04:20:08;102247.63;;;0.71;68.67
28921;BME280;16035;53.594;9.952;2024-01-07T04:22:08;102255.16;;;0.68;67.99
28921;BME280;16035;53.594;9.952;2024-01-07T04:24:09;102269.22;;;0.70;68.56
28921;BME280;16035;53.594;9.952;2024-01-07T04:26:09;102264.06;;;0.77;68.26
28921;BME280;16035;53.594;9.952;2024-01-07T04:28:09;102257.72;;;0.78;68.70
28921;BME280;16035;53.594;9.952;2024-01-07T04:30:10;102254.22;;;0.77;68.42
28921;BME280;16035;53.594;9.952;2024-01-07T04:32:10;102263.56;;;0.73;67.97
28921;BME280;16035;53.594;9.952;2024-01-07T04:34:11;102255.16;;;0.68;67.58
28921;BME280;16035;53.594;9.952;2024-01-07T04:36:11;102258.34;;;0.71;67.27
28921;BME280;16035;53.594;9.952;2024-01-07T04:38:11;102265.53;;;0.71;67.74
28921;BME280;16035;53.594;9.952;2024-01-07T04:40:12;102270.03;;;0.70;67.45
28921;BME280;16035;53.594;9.952;2024-01-07T04:42:12;102267.22;;;0.72;66.64
28921;BME280;16035;53.594;9.952;2024-01-07T04:44:13;102259.88;;;0.74;67.68
28921;BME280;16035;53.594;9.952;2024-01-07T04:46:14;102270.09;;;0.79;67.46
28921;BME280;16035;53.594;9.952;2024-01-07T04:48:14;102264.91;;;0.77;66.05
28921;BME280;16035;53.594;9.952;2024-01-07T04:50:14;102267.72;;;0.75;66.07
28921;BME280;16035;53.594;9.952;2024-01-07T04:52:15;102263.75;;;0.80;66.45
28921;BME280;16035;53.594;9.952;2024-01-07T04:54:15;102275.81;;;0.84;66.81
28921;BME280;16035;53.594;9.952;2024-01-07T04:56:15;102272.13;;;0.85;67.12
28921;BME280;16035;53.594;9.952;2024-01-07T04:58:16;102277.47;;;0.85;66.97
28921;BME280;16035;53.594;9.952;2024-01-07T05:00:16;102271.81;;;0.88;66.55
28921;BME280;16035;53.594;9.952;2024-01-07T05:02:17;102284.19;;;0.89;66.14
28921;BME280;16035;53.594;9.952;2024-01-07T05:04:17;102275.13;;;0.82;65.63
28921;BME280;16035;53.594;9.952;2024-01-07T05:06:17;102285.31;;;0.78;65.44
28921;BME280;16035;53.594;9.952;2024-01-07T05:08:18;102282.63;;;0.78;66.33
28921;BME280;16035;53.594;9.952;2024-01-07T05:10:18;102289.34;;;0.82;66.65
28921;BME280;16035;53.594;9.952;2024-01-07T05:12:18;102289.19;;;0.84;66.11
28921;BME280;16035;53.594;9.952;2024-01-07T05:14:18;102288.09;;;0.94;65.80
28921;BME280;16035;53.594;9.952;2024-01-07T05:16:19;102291.59;;;0.95;66.34
28921;BME280;16035;53.594;9.952;2024-01-07T05:18:23;102291.25;;;0.98;66.29
28921;BME280;16035;53.594;9.952;2024-01-07T05:20:24;102290.63;;;1.04;66.31
28921;BME280;16035;53.594;9.952;2024-01-07T05:22:24;102301.34;;;1.04;65.95
28921;BME280;16035;53.594;9.952;2024-01-07T05:24:24;102301.19;;;1.06;66.40
28921;BME280;16035;53.594;9.952;2024-01-07T05:26:25;102292.34;;;1.13;66.14
28921;BME280;16035;53.594;9.952;2024-01-07T05:28:25;102304.91;;;1.13;65.94
28921;BME280;16035;53.594;9.952;2024-01-07T05:30:26;102309.91;;;1.08;66.28
28921;BME280;16035;53.594;9.952;2024-01-07T05:32:26;102310.41;;;1.11;66.50
28921;BME280;16035;53.594;9.952;2024-01-07T05:34:27;102308.09;;;1.16;66.47
28921;BME280;16035;53.594;9.952;2024-01-07T05:36:28;102313.13;;;1.19;67.03
28921;BME280;16035;53.594;9.952;2024-01-07T05:38:28;102321.31;;;1.18;67.07
28921;BME280;16035;53.594;9.952;2024-01-07T05:40:28;102320.50;;;1.17;67.33
28921;BME280;16035;53.594;9.952;2024-01-07T05:42:29;102319.47;;;1.18;66.88
28921;BME280;16035;53.594;9.952;2024-01-07T05:44:29;102329.53;;;1.16;67.25
28921;BME280;16035;53.594;9.952;2024-01-07T05:46:29;102323.47;;;1.14;67.20
28921;BME280;16035;53.594;9.952;2024-01-07T05:48:29;102337.19;;;1.11;67.62
28921;BME280;16035;53.594;9.952;2024-01-07T05:50:40;102337.50;;;1.08;67.30
28921;BME280;16035;53.594;9.952;2024-01-07T05:52:41;102342.34;;;1.05;67.71
28921;BME280;16035;53.594;9.952;2024-01-07T05:54:42;102334.84;;;1.08;67.86
28921;BME280;16035;53.594;9.952;2024-01-07T05:56:43;102339.50;;;1.06;67.92
28921;BME280;16035;53.594;9.952;2024-01-07T05:58:43;102344.53;;;1.09;68.02
28921;BME280;16035;53.594;9.952;2024-01-07T06:00:43;102343.41;;;1.12;68.16
28921;BME280;16035;53.594;9.952;2024-01-07T06:02:44;102347.06;;;1.11;68.56
28921;BME280;16035;53.594;9.952;2024-01-07T06:04:44;102344.84;;;1.06;67.63
28921;BME280;16035;53.594;9.952;2024-01-07T06:06:44;102347.69;;;1.05;68.19
28921;BME280;16035;53.594;9.952;2024-01-07T06:08:45;102353.41;;;1.10;68.36
28921;BME280;16035;53.594;9.952;2024-01-07T06:10:45;102349.59;;;1.12;68.36
28921;BME280;16035;53.594;9.952;2024-01-07T06:12:45;102354.09;;;1.12;68.48
28921;BME280;16035;53.594;9.952;2024-01-07T06:14:46;102347.75;;;1.13;68.64
28921;BME280;16035;53.594;9.952;2024-01-07T06:16:46;102354.09;;;1.12;68.30
28921;BME280;16035;53.594;9.952;2024-01-07T06:18:46;102369.66;;;1.08;68.17
28921;BME280;16035;53.594;9.952;2024-01-07T06:20:47;102357.75;;;1.11;68.60
28921;BME280;16035;53.594;9.952;2024-01-07T06:22:47;102373.81;;;1.11;68.60
28921;BME280;16035;53.594;9.952;2024-01-07T06:24:47;102375.66;;;1.10;68.84
28921;BME280;16035;53.594;9.952;2024-01-07T06:26:48;102373.16;;;1.09;68.45
28921;BME280;16035;53.594;9.952;2024-01-07T06:28:48;102375.84;;;1.09;68.49
28921;BME280;16035;53.594;9.952;2024-01-07T06:30:49;102369.94;;;1.05;68.70
28921;BME280;16035;53.594;9.952;2024-01-07T06:32:49;102364.78;;;1.04;68.87
28921;BME280;16035;53.594;9.952;2024-01-07T06:34:50;102362.94;;;1.04;68.71
28921;BME280;16035;53.594;9.952;2024-01-07T06:36:50;102362.41;;;1.00;68.93
28921;BME280;16035;53.594;9.952;2024-01-07T06:38:52;102378.47;;;1.00;68.70
28921;BME280;16035;53.594;9.952;2024-01-07T06:40:53;102373.28;;;0.99;69.00
28921;BME280;16035;53.594;9.952;2024-01-07T06:42:55;102376.78;;;0.99;69.01
28921;BME280;16035;53.594;9.952;2024-01-07T06:44:56;102380.13;;;1.01;69.24
28921;BME280;16035;53.594;9.952;2024-01-07T06:46:57;102395.19;;;1.02;69.00
28921;BME280;16035;53.594;9.952;2024-01-07T06:48:57;102386.00;;;1.05;68.99
28921;BME280;16035;53.594;9.952;2024-01-07T06:50:58;102399.22;;;1.07;69.13
28921;BME280;16035;53.594;9.952;2024-01-07T06:52:58;102401.78;;;1.08;69.03
28921;BME280;16035;53.594;9.952;2024-01-07T06:54:58;102399.94;;;1.09;69.23
28921;BME280;16035;53.594;9.952;2024-01-07T06:56:59;102399.09;;;1.08;69.18
28921;BME280;16035;53.594;9.952;2024-01-07T06:58:59;102401.78;;;1.08;69.20
28921;BME280;16035;53.594;9.952;2024-01-07T07:01:00;102413.47;;;1.07;68.94
28921;BME280;16035;53.594;9.952;2024-01-07T07:03:00;102414.16;;;1.09;69.32
28921;BME280;16035;53.594;9.952;2024-01-07T07:05:00;102417.00;;;1.08;68.88
28921;BME280;16035;53.594;9.952;2024-01-07T07:07:01;102421.00;;;1.04;69.50
28921;BME280;16035;53.594;9.952;2024-01-07T07:09:01;102420.28;;;1.01;69.50
28921;BME280;16035;53.594;9.952;2024-01-07T07:11:01;102415.63;;;1.04;69.66
28921;BME280;16035;53.594;9.952;2024-01-07T07:13:02;102418.63;;;1.00;69.89
28921;BME280;16035;53.594;9.952;2024-01-07T07:15:02;102429.69;;;1.06;69.83
28921;BME280;16035;53.594;9.952;2024-01-07T07:17:03;102427.53;;;1.09;69.58
28921;BME280;16035;53.594;9.952;2024-01-07T07:19:03;102432.72;;;1.11;69.88
28921;BME280;16035;53.594;9.952;2024-01-07T07:21:04;102440.63;;;1.12;69.64
28921;BME280;16035;53.594;9.952;2024-01-07T07:23:04;102442.66;;;1.18;70.22
28921;BME280;16035;53.594;9.952;2024-01-07T07:25:05;102448.19;;;1.17;69.84
28921;BME280;16035;53.594;9.952;2024-01-07T07:27:05;102446.34;;;1.17;69.83
28921;BME280;16035;53.594;9.952;2024-01-07T07:29:07;102457.38;;;1.14;69.86
28921;BME280;16035;53.594;9.952;2024-01-07T07:31:11;102445.44;;;1.09;69.93
28921;BME280;16035;53.594;9.952;2024-01-07T07:33:12;102458.00;;;1.08;70.01
28921;BME280;16035;53.594;9.952;2024-01-07T07:35:13;102463.66;;;1.05;70.12
28921;BME280;16035;53.594;9.952;2024-01-07T07:37:14;102466.88;;;1.09;70.17
28921;BME280;16035;53.594;9.952;2024-01-07T07:39:14;102469.56;;;1.09;70.07
28921;BME280;16035;53.594;9.952;2024-01-07T07:41:14;102472.22;;;1.09;70.36
28921;BME280;16035;53.594;9.952;2024-01-07T07:43:15;102472.00;;;1.02;70.68
28921;BME280;16035;53.594;9.952;2024-01-07T07:45:15;102475.38;;;1.04;70.74
28921;BME280;16035;53.594;9.952;2024-01-07T07:47:15;102478.06;;;1.04;70.87
28921;BME280;16035;53.594;9.952;2024-01-07T07:49:16;102475.91;;;1.08;70.75
28921;BME280;16035;53.594;9.952;2024-01-07T07:51:16;102476.75;;;1.08;70.21
28921;BME280;16035;53.594;9.952;2024-01-07T07:53:16;102481.41;;;1.06;70.46
28921;BME280;16035;53.594;9.952;2024-01-07T07:55:17;102490.22;;;0.98;70.41
28921;BME280;16035;53.594;9.952;2024-01-07T07:57:18;102491.38;;;0.96;71.15
28921;BME280;16035;53.594;9.952;2024-01-07T07:59:20;102491.53;;;0.94;70.90
28921;BME280;16035;53.594;9.952;2024-01-07T08:01:21;102502.69;;;0.90;70.66
28921;BME280;16035;53.594;9.952;2024-01-07T08:03:21;102500.78;;;0.82;70.56
28921;BME280;16035;53.594;9.952;2024-01-07T08:05:21;102505.31;;;0.82;70.75
28921;BME280;16035;53.594;9.952;2024-01-07T08:07:22;102510.50;;;0.83;70.90
28921;BME280;16035;53.594;9.952;2024-01-07T08:09:22;102508.97;;;0.81;70.71
28921;BME280;16035;53.594;9.952;2024-01-07T08:11:25;102517.75;;;0.73;70.87
28921;BME280;16035;53.594;9.952;2024-01-07T08:13:25;102514.72;;;0.68;70.54
28921;BME280;16035;53.594;9.952;2024-01-07T08:15:25;102525.72;;;0.65;70.61
28921;BME280;16035;53.594;9.952;2024-01-07T08:17:26;102520.34;;;0.65;70.66
28921;BME280;16035;53.594;9.952;2024-01-07T08:19:26;102523.31;;;0.62;70.88
28921;BME280;16035;53.594;9.952;2024-01-07T08:21:26;102523.03;;;0.65;70.97
28921;BME280;16035;53.594;9.952;2024-01-07T08:23:27;102523.88;;;0.65;70.63
28921;BME280;16035;53.594;9.952;2024-01-07T08:25:27;102528.84;;;0.60;71.10
28921;BME280;16035;53.594;9.952;2024-01-07T08:27:28;102524.63;;;0.58;71.23
28921;BME280;16035;53.594;9.952;2024-01-07T08:29:29;102535.88;;;0.61;70.93
28921;BME280;16035;53.594;9.952;2024-01-07T08:31:29;102534.47;;;0.57;70.87
28921;BME280;16035;53.594;9.952;2024-01-07T08:33:30;102543.66;;;0.55;70.86
28921;BME280;16035;53.594;9.952;2024-01-07T08:35:33;102539.16;;;0.55;71.14
28921;BME280;16035;53.594;9.952;2024-01-07T08:37:33;102535.25;;;0.49;70.97
28921;BME280;16035;53.594;9.952;2024-01-07T08:39:33;102537.78;;;0.51;71.19
28921;BME280;16035;53.594;9.952;2024-01-07T08:41:34;102544.34;;;0.57;70.87
28921;BME280;16035;53.594;9.952;2024-01-07T08:43:34;102543.75;;;0.63;70.80
28921;BME280;16035;53.594;9.952;2024-01-07T08:45:34;102550.09;;;0.62;70.57
28921;BME280;16035;53.594;9.952;2024-01-07T08:47:35;102547.28;;;0.63;70.60
28921;BME280;16035;53.594;9.952;2024-01-07T08:49:36;102554.75;;;0.60;70.17
28921;BME280;16035;53.594;9.952;2024-01-07T08:51:38;102556.97;;;0.64;70.43
28921;BME280;16035;53.594;9.952;2024-01-07T08:53:39;102561.09;;;0.59;70.13
28921;BME280;16035;53.594;9.952;2024-01-07T08:55:39;102562.59;;;0.43;70.28
28921;BME280;16035;53.594;9.952;2024-01-07T08:57:39;102569.53;;;0.36;70.46
28921;BME280;16035;53.594;9.952;2024-01-07T08:59:40;102575.88;;;0.35;70.40
28921;BME280;16035;53.594;9.952;2024-01-07T09:01:40;102579.97;;;0.30;69.98
28921;BME280;16035;53.594;9.952;2024-01-07T09:03:40;102575.91;;;0.25;70.33
28921;BME280;16035;53.594;9.952;2024-01-07T09:05:41;102580.44;;;0.25;70.42
28921;BME280;16035;53.594;9.952;2024-01-07T09:07:42;102590.06;;;0.36;70.84
28921;BME280;16035;53.594;9.952;2024-01-07T09:09:42;102585.66;;;0.44;70.25
28921;BME280;16035;53.594;9.952;2024-01-07T09:11:42;102581.41;;;0.52;70.07
28921;BME280;16035;53.594;9.952;2024-01-07T09:13:43;102591.75;;;0.64;70.35
28921;BME280;16035;53.594;9.952;2024-01-07T09:15:44;102586.56;;;0.63;69.17
28921;BME280;16035;53.594;9.952;2024-01-07T09:17:45;102589.94;;;0.65;69.71
28921;BME280;16035;53.594;9.952;2024-01-07T09:19:45;102590.22;;;0.62;69.93
28921;BME280;16035;53.594;9.952;2024-01-07T09:21:46;102594.19;;;0.58;69.51
28921;BME280;16035;53.594;9.952;2024-01-07T09:23:46;102593.34;;;0.57;69.77
28921;BME280;16035;53.594;9.952;2024-01-07T09:25:46;102602.53;;;0.55;69.43
28921;BME280;16035;53.594;9.952;2024-01-07T09:27:46;102601.28;;;0.49;69.34
28921;BME280;16035;53.594;9.952;2024-01-07T09:29:47;102595.06;;;0.48;69.76
28921;BME280;16035;53.594;9.952;2024-01-07T09:31:47;102604.94;;;0.48;69.56
28921;BME280;16035;53.594;9.952;2024-01-07T09:33:50;102607.66;;;0.38;69.81
28921;BME280;16035;53.594;9.952;2024-01-07T09:35:54;102614.00;;;0.37;69.94
28921;BME280;16035;53.594;9.952;2024-01-07T09:37:54;102613.72;;;0.40;69.05
28921;BME280;16035;53.594;9.952;2024-01-07T09:39:54;102616.41;;;0.31;69.13
28921;BME280;16035;53.594;9.952;2024-01-07T09:41:55;102616.19;;;0.24;69.74
28921;BME280;16035;53.594;9.952;2024-01-07T09:43:55;102619.31;;;0.19;69.84
28921;BME280;16035;53.594;9.952;2024-01-07T09:45:58;102620.28;;;0.18;69.58
28921;BME280;16035;53.594;9.952;2024-01-07T09:47:59;102621.69;;;0.22;69.91
28921;BME280;16035;53.594;9.952;2024-01-07T09:49:59;102627.72;;;0.24;69.75
28921;BME280;16035;53.594;9.952;2024-01-07T09:52:00;102621.09;;;0.29;69.41
28921;BME280;16035;53.594;9.952;2024-01-07T09:54:03;102614.00;;;0.37;69.34
28921;BME280;16035;53.594;9.952;2024-01-07T09:58:15;102605.38;;;0.43;69.19
28921;BME280;16035;53.594;9.952;2024-01-07T10:00:16;102610.75;;;0.43;69.14
28921;BME280;16035;53.594;9.952;2024-01-07T10:02:17;102619.53;;;0.54;69.63
28921;BME280;16035;53.594;9.952;2024-01-07T10:04:17;102619.69;;;0.52;69.05
28921;BME280;16035;53.594;9.952;2024-01-07T10:06:18;102609.75;;;0.44;69.06
28921;BME280;16035;53.594;9.952;2024-01-07T10:08:19;102618.75;;;0.43;69.02
28921;BME280;16035;53.594;9.952;2024-01-07T10:10:20;102617.91;;;0.43;69.16
28921;BME280;16035;53.594;9.952;2024-01-07T10:12:23;102623.13;;;0.44;69.16
28921;BME280;16035;53.594;9.952;2024-01-07T10:14:24;102611.63;;;0.34;69.07
28921;BME280;16035;53.594;9.952;2024-01-07T10:16:26;102616.59;;;0.29;68.92
28921;BME280;16035;53.594;9.952;2024-01-07T10:18:26;102619.53;;;0.26;69.19
28921;BME280;16035;53.594;9.952;2024-01-07T10:20:27;102612.91;;;0.30;68.95
28921;BME280;16035;53.594;9.952;2024-01-07T10:22:27;102615.41;;;0.41;69.05
28921;BME280;16035;53.594;9.952;2024-01-07T10:24:35;102614.63;;;0.59;68.76
28921;BME280;16035;53.594;9.952;2024-01-07T10:26:38;102619.59;;;0.71;68.86
28921;BME280;16035;53.594;9.952;2024-01-07T10:28:39;102623.50;;;0.77;68.44
28921;BME280;16035;53.594;9.952;2024-01-07T10:30:40;102627.47;;;0.73;68.47
28921;BME280;16035;53.594;9.952;2024-01-07T10:32:41;102624.34;;;0.78;68.61
28921;BME280;16035;53.594;9.952;2024-01-07T10:34:46;102623.44;;;0.87;68.14
28921;BME280;16035;53.594;9.952;2024-01-07T10:36:47;102622.69;;;0.94;68.47
28921;BME280;16035;53.594;9.952;2024-01-07T10:38:48;102625.38;;;0.94;68.33